createdAt,value
2018-12-07T00:01:15.838Z,100410.61
2018-12-07T00:03:44.221Z,100402.02
2018-12-07T00:06:12.744Z,100395.20
2018-12-07T00:08:41.163Z,100397.46
2018-12-07T00:11:09.585Z,100389.28
2018-12-07T00:13:38.043Z,100378.98
2018-12-07T00:16:06.889Z,100377.77
2018-12-07T00:18:35.273Z,100374.83
2018-12-07T00:21:03.891Z,100373.53
2018-12-07T00:23:32.477Z,100371.42
2018-12-07T00:26:00.909Z,100359.34
2018-12-07T00:28:29.359Z,100362.50
2018-12-07T00:30:57.781Z,100349.94
2018-12-07T00:33:26.238Z,100350.91
2018-12-07T00:35:55.277Z,100339.72
2018-12-07T00:38:23.693Z,100334.67
2018-12-07T00:40:52.136Z,100332.56
2018-12-07T00:43:20.550Z,100322.67
2018-12-07T00:45:48.934Z,100313.59
2018-12-07T00:48:17.332Z,100311.41
2018-12-07T00:50:46.045Z,100304.52
2018-12-07T00:53:14.458Z,100294.15
2018-12-07T00:55:44.265Z,100292.03
2018-12-07T00:58:12.716Z,100296.41
2018-12-07T01:00:41.248Z,100290.88
2018-12-07T01:03:09.637Z,100286.98
2018-12-07T01:05:38.072Z,100283.91
2018-12-07T01:08:06.509Z,100281.88
2018-12-07T01:10:34.917Z,100269.25
2018-12-07T01:13:03.668Z,100265.36
2018-12-07T01:15:32.362Z,100270.47
2018-12-07T01:18:00.764Z,100262.62
2018-12-07T01:20:29.221Z,100257.84
2018-12-07T01:22:57.596Z,100248.70
2018-12-07T01:25:26.012Z,100246.52
2018-12-07T01:27:54.468Z,100227.82
2018-12-07T01:30:22.887Z,100225.98
2018-12-07T01:32:51.269Z,100218.54
2018-12-07T01:35:20.013Z,100215.95
2018-12-07T01:37:49.092Z,100210.14
2018-12-07T01:40:19.389Z,100215.19
2018-12-07T01:42:48.057Z,100208.64
2018-12-07T01:45:16.468Z,100201.12
2018-12-07T01:47:47.182Z,100199.70
2018-12-07T01:50:16.500Z,100201.73
2018-12-07T01:52:45.215Z,100196.48
2018-12-07T01:55:13.681Z,100205.41
2018-12-07T01:57:43.089Z,100182.77
2018-12-07T02:00:11.617Z,100181.41
2018-12-07T02:02:40.121Z,100168.38
2018-12-07T02:05:08.829Z,100164.90
2018-12-07T02:07:37.258Z,100157.05
2018-12-07T02:10:06.879Z,100151.88
2018-12-07T02:12:35.425Z,100149.22
2018-12-07T02:15:03.960Z,100143.55
2018-12-07T02:17:32.344Z,100147.03
2018-12-07T02:20:00.765Z,100140.48
2018-12-07T02:22:29.165Z,100127.94
2018-12-07T02:24:57.548Z,99979.25
2018-12-07T02:27:25.987Z,100122.14
2018-12-07T02:29:55.100Z,100114.23
2018-12-07T02:32:23.481Z,100120.56
2018-12-07T02:34:51.936Z,100104.47
2018-12-07T02:37:20.566Z,100096.97
2018-12-07T02:39:49.609Z,100102.42
2018-12-07T02:42:18.037Z,100093.63
2018-12-07T02:44:46.419Z,100095.80
2018-12-07T02:47:14.964Z,100080.13
2018-12-07T02:49:43.383Z,100082.23
2018-12-07T02:52:11.779Z,100079.17
2018-12-07T02:54:40.352Z,100067.72
2018-12-07T02:57:09.227Z,100072.34
2018-12-07T02:59:37.784Z,100060.00
2018-12-07T03:02:06.604Z,100064.16
2018-12-07T03:04:35.230Z,100045.97
2018-12-07T03:07:03.841Z,100041.47
2018-12-07T03:09:32.248Z,100038.80
2018-12-07T03:12:00.689Z,100025.24
2018-12-07T03:14:29.067Z,100016.19
2018-12-07T03:16:57.627Z,100017.89
2018-12-07T03:19:26.043Z,100014.75
2018-12-07T03:21:54.466Z,100007.80
2018-12-07T03:24:22.856Z,100004.25
2018-12-07T03:26:51.289Z,100000.30
2018-12-07T03:29:19.717Z,99998.94
2018-12-07T03:31:48.110Z,99980.20
2018-12-07T03:34:16.540Z,99980.95
2018-12-07T03:36:45.020Z,99967.98
2018-12-07T03:39:13.456Z,99964.02
2018-12-07T03:41:42.388Z,99964.91
2018-12-07T03:44:10.749Z,99962.66
2018-12-07T03:46:39.129Z,99954.02
2018-12-07T03:49:07.571Z,99950.06
2018-12-07T03:51:36.033Z,99951.22
2018-12-07T03:54:04.533Z,99944.61
2018-12-07T03:56:32.989Z,99946.24
2018-12-07T03:59:01.473Z,99947.05
2018-12-07T04:01:29.845Z,99942.22
2018-12-07T04:03:58.259Z,99941.00
2018-12-07T04:06:26.677Z,99940.25
2018-12-07T04:08:55.056Z,99931.61
2018-12-07T04:11:23.473Z,99929.42
2018-12-07T04:13:51.893Z,99922.95
2018-12-07T04:16:20.888Z,99918.19
2018-12-07T04:18:49.325Z,99915.53
2018-12-07T04:21:17.733Z,99915.05
2018-12-07T04:23:46.129Z,99908.11
2018-12-07T04:26:14.548Z,99908.11
2018-12-07T04:28:42.947Z,99913.28
2018-12-07T04:31:12.028Z,99907.70
2018-12-07T04:33:40.460Z,99899.06
2018-12-07T04:36:08.870Z,99893.06
2018-12-07T04:38:37.258Z,99892.73
2018-12-07T04:41:05.839Z,99887.14
2018-12-07T04:43:34.913Z,99895.38
2018-12-07T04:46:03.305Z,99886.33
2018-12-07T04:48:32.118Z,99887.69
2018-12-07T04:51:00.549Z,99882.11
2018-12-07T04:53:29.108Z,99878.77
2018-12-07T04:55:57.518Z,99879.25
2018-12-07T04:58:25.901Z,99876.66
2018-12-07T05:00:54.321Z,99876.73
2018-12-07T05:03:22.814Z,99878.16
2018-12-07T05:05:51.201Z,99879.52
2018-12-07T05:08:19.587Z,99882.61
2018-12-07T05:10:48.066Z,99878.80
2018-12-07T05:13:16.463Z,99863.82
2018-12-07T05:15:44.854Z,99861.23
2018-12-07T05:18:13.405Z,99860.89
2018-12-07T05:20:44.789Z,99852.71
2018-12-07T05:23:13.481Z,99848.97
2018-12-07T05:25:41.878Z,99825.27
2018-12-07T05:28:10.279Z,99821.45
2018-12-07T05:30:38.698Z,99814.09
2018-12-07T05:33:07.083Z,99808.50
2018-12-07T05:35:35.462Z,99807.62
2018-12-07T05:38:03.902Z,99810.20
2018-12-07T05:40:32.421Z,99804.63
2018-12-07T05:43:00.809Z,99810.41
2018-12-07T05:45:29.638Z,99805.64
2018-12-07T05:47:58.013Z,99810.41
2018-12-07T05:50:26.833Z,99808.70
2018-12-07T05:52:55.359Z,99811.70
2018-12-07T05:55:23.745Z,99809.23
2018-12-07T05:57:52.109Z,99802.16
2018-12-07T06:00:20.649Z,99791.81
2018-12-07T06:02:49.048Z,99783.63
2018-12-07T06:05:17.468Z,99785.47
2018-12-07T06:07:46.076Z,99778.52
2018-12-07T06:10:14.466Z,99784.59
2018-12-07T06:12:42.889Z,99779.47
2018-12-07T06:15:11.357Z,99774.30
2018-12-07T06:17:39.798Z,99779.53
2018-12-07T06:20:08.365Z,99771.83
2018-12-07T06:22:36.785Z,99766.66
2018-12-07T06:25:05.498Z,99779.66
2018-12-07T06:27:33.869Z,99782.31
2018-12-07T06:30:02.306Z,99791.44
2018-12-07T06:32:36.055Z,99781.63
2018-12-07T06:35:01.195Z,99781.63
2018-12-07T06:37:30.027Z,99780.33
2018-12-07T06:39:58.403Z,99773.51
2018-12-07T06:42:27.097Z,99762.73
2018-12-07T06:44:55.607Z,99761.51
2018-12-07T06:47:24.285Z,99764.45
2018-12-07T06:49:52.705Z,99766.22
2018-12-07T06:52:21.157Z,99772.69
2018-12-07T06:54:49.557Z,99774.45
2018-12-07T06:57:17.965Z,99766.75
2018-12-07T06:59:46.444Z,99769.34
2018-12-07T07:02:14.976Z,99776.70
2018-12-07T07:04:43.647Z,99791.47
2018-12-07T07:07:12.056Z,99790.66
2018-12-07T07:09:40.450Z,99790.71
2018-12-07T07:12:08.946Z,99783.42
2018-12-07T07:14:37.406Z,99773.53
2018-12-07T07:17:05.996Z,99774.07
2018-12-07T07:19:34.369Z,99768.83
2018-12-07T07:22:02.878Z,99759.83
2018-12-07T07:24:31.379Z,99748.70
2018-12-07T07:27:00.089Z,99741.88
2018-12-07T07:29:28.524Z,99734.17
2018-12-07T07:31:56.900Z,99727.70
2018-12-07T07:34:25.516Z,99729.05
2018-12-07T07:36:54.040Z,99726.59
2018-12-07T07:39:22.466Z,99721.06
2018-12-07T07:41:50.974Z,99705.45
2018-12-07T07:44:19.409Z,99704.63
2018-12-07T07:46:48.119Z,99705.45
2018-12-07T07:49:23.545Z,99701.98
2018-12-07T07:51:51.937Z,99708.52
2018-12-07T07:54:21.171Z,99699.86
2018-12-07T07:56:49.766Z,99699.52
2018-12-07T07:59:18.153Z,99696.04
2018-12-07T08:01:46.610Z,99692.22
2018-12-07T08:04:15.649Z,99684.44
2018-12-07T08:06:44.042Z,99664.66
2018-12-07T08:09:12.413Z,99655.66
2018-12-07T08:11:40.809Z,99644.06
2018-12-07T08:14:09.213Z,99645.88
2018-12-07T08:16:37.617Z,99649.83
2018-12-07T08:19:06.208Z,99618.58
2018-12-07T08:21:34.606Z,99485.10
2018-12-07T08:24:03.009Z,99644.46
2018-12-07T08:26:31.598Z,99635.92
2018-12-07T08:28:59.976Z,99638.62
2018-12-07T08:31:28.429Z,99631.38
2018-12-07T08:33:56.877Z,99631.91
2018-12-07T08:36:25.393Z,99637.14
2018-12-07T08:38:53.762Z,99629.95
2018-12-07T08:41:22.236Z,99637.37
2018-12-07T08:43:50.675Z,99646.55
2018-12-07T08:46:19.221Z,99647.12
2018-12-07T08:48:47.697Z,99651.55
2018-12-07T08:51:16.993Z,99656.01
2018-12-07T08:53:45.646Z,99666.91
2018-12-07T08:56:14.255Z,99676.50
2018-12-07T08:58:42.844Z,99678.38
2018-12-07T09:01:11.281Z,99680.61
2018-12-07T09:03:39.843Z,99691.09
2018-12-07T09:06:08.219Z,99684.67
2018-12-07T09:08:36.613Z,99685.66
2018-12-07T09:11:05.151Z,99682.71
2018-12-07T09:13:33.658Z,99683.28
2018-12-07T09:16:02.153Z,99684.64
2018-12-07T09:18:30.585Z,99688.22
2018-12-07T09:20:58.969Z,99691.86
2018-12-07T09:23:27.405Z,99679.83
2018-12-07T09:25:55.926Z,99671.69
2018-12-07T09:28:24.341Z,99668.68
2018-12-07T09:30:54.037Z,99670.91
2018-12-07T09:33:22.687Z,99662.77
2018-12-07T09:35:51.094Z,99642.91
2018-12-07T09:38:19.490Z,99637.77
2018-12-07T09:40:48.203Z,99640.88
2018-12-07T09:43:16.997Z,99631.44
2018-12-07T09:45:45.444Z,99634.09
2018-12-07T09:48:14.060Z,99633.30
2018-12-07T09:50:43.137Z,99634.66
2018-12-07T09:53:12.001Z,99638.59
2018-12-07T09:55:40.418Z,99650.80
2018-12-07T09:58:08.844Z,99652.19
2018-12-07T10:00:37.261Z,99648.82
2018-12-07T10:03:06.275Z,99644.56
2018-12-07T10:05:34.672Z,99647.31
2018-12-07T10:08:03.164Z,99638.33
2018-12-07T10:10:32.074Z,99635.37
2018-12-07T10:13:07.706Z,99630.18
2018-12-07T10:15:31.257Z,99634.17
2018-12-07T10:17:59.663Z,99635.94
2018-12-07T10:20:28.064Z,99623.38
2018-12-07T10:22:56.500Z,99626.84
2018-12-07T10:25:25.030Z,99622.55
2018-12-07T10:27:54.626Z,99621.76
2018-12-07T10:30:23.141Z,99626.48
2018-12-07T10:32:52.982Z,99616.98
2018-12-07T10:35:21.566Z,99578.76
2018-12-07T10:37:49.981Z,99615.13
2018-12-07T10:40:18.350Z,99623.74
2018-12-07T10:42:46.909Z,99624.94
2018-12-07T10:45:15.359Z,99612.23
2018-12-07T10:47:50.082Z,99596.97
2018-12-07T10:50:14.402Z,99584.83
2018-12-07T10:52:42.968Z,99579.08
2018-12-07T10:55:11.891Z,99577.73
2018-12-07T10:57:40.815Z,99577.73
2018-12-07T11:00:22.747Z,99573.84
2018-12-07T11:02:52.674Z,99581.16
2018-12-07T11:05:26.355Z,99575.81
2018-12-07T11:07:59.974Z,99567.61
2018-12-07T11:10:33.699Z,99557.34
2018-12-07T11:13:07.392Z,99545.25
2018-12-07T11:15:41.265Z,99531.13
2018-12-07T11:18:14.831Z,99529.83
2018-12-07T11:20:48.867Z,99534.19
2018-12-07T11:23:22.601Z,99529.36
2018-12-07T11:25:56.096Z,99528.16
2018-12-07T11:28:29.711Z,99528.53
2018-12-07T11:31:03.593Z,99538.03
2018-12-07T11:33:37.319Z,99530.15
2018-12-07T11:36:08.268Z,99534.45
2018-12-07T11:38:37.057Z,99529.68
2018-12-07T11:41:05.739Z,99531.39
2018-12-07T11:43:35.511Z,99531.66
2018-12-07T11:46:03.901Z,99529.70
2018-12-07T11:48:32.347Z,99519.69
2018-12-07T11:51:00.761Z,99522.34
2018-12-07T11:53:29.189Z,99538.31
2018-12-07T11:55:58.378Z,99547.19
2018-12-07T11:58:26.805Z,99546.94
2018-12-07T12:00:55.205Z,99550.63
2018-12-07T12:03:23.665Z,99551.66
2018-12-07T12:05:52.068Z,99542.43
2018-12-07T12:08:20.473Z,99533.31
2018-12-07T12:10:49.030Z,99529.88
2018-12-07T12:13:17.437Z,99524.34
2018-12-07T12:15:46.164Z,99527.76
2018-12-07T12:18:14.677Z,99529.78
2018-12-07T12:20:43.233Z,99532.27
2018-12-07T12:23:11.636Z,99539.53
2018-12-07T12:25:40.098Z,99537.41
2018-12-07T12:28:08.509Z,99535.74
2018-12-07T12:30:36.893Z,99530.66
2018-12-07T12:33:06.380Z,99518.53
2018-12-07T12:35:34.789Z,99510.86
2018-12-07T12:38:03.669Z,99508.42
2018-12-07T12:40:32.115Z,99511.11
2018-12-07T12:43:00.597Z,99502.14
2018-12-07T12:45:29.120Z,99502.14
2018-12-07T12:47:57.564Z,99514.22
2018-12-07T12:50:31.282Z,99515.83
2018-12-07T12:52:59.801Z,99513.09
2018-12-07T12:55:28.193Z,99514.44
2018-12-07T12:57:57.406Z,99520.97
2018-12-07T13:00:26.612Z,99510.64
2018-12-07T13:02:55.695Z,99510.80
2018-12-07T13:05:24.621Z,99520.28
2018-12-07T13:07:53.085Z,99517.64
2018-12-07T13:10:21.521Z,99509.03
2018-12-07T13:12:49.911Z,99510.28
2018-12-07T13:15:18.359Z,99505.56
2018-12-07T13:17:46.837Z,99512.09
2018-12-07T13:20:15.272Z,99500.01
2018-12-07T13:22:43.720Z,99503.33
2018-12-07T13:25:12.109Z,99499.44
2018-12-07T13:27:40.755Z,99494.72
2018-12-07T13:30:10.270Z,99501.72
2018-12-07T13:32:38.687Z,99492.64
2018-12-07T13:35:07.105Z,99494.88
2018-12-07T13:37:36.427Z,99490.42
2018-12-07T13:40:05.681Z,99493.42
2018-12-07T13:42:34.236Z,99496.02
2018-12-07T13:45:04.613Z,99499.91
2018-12-07T13:47:33.811Z,99498.52
2018-12-07T13:50:08.097Z,99498.05
2018-12-07T13:52:36.806Z,99495.82
2018-12-07T13:55:05.821Z,99491.41
2018-12-07T13:57:34.263Z,99490.58
2018-12-07T14:00:02.831Z,99488.50
2018-12-07T14:02:31.298Z,99491.98
2018-12-07T14:05:00.415Z,99481.51
2018-12-07T14:07:29.628Z,99482.70
2018-12-07T14:09:58.101Z,99480.89
2018-12-07T14:12:26.696Z,99479.59
2018-12-07T14:14:55.082Z,99479.70
2018-12-07T14:17:23.519Z,99479.33
2018-12-07T14:19:52.448Z,99481.05
2018-12-07T14:22:21.126Z,99481.09
2018-12-07T14:24:49.916Z,99474.56
2018-12-07T14:27:18.685Z,99468.49
2018-12-07T14:29:47.468Z,99475.49
2018-12-07T14:32:16.059Z,99475.13
2018-12-07T14:34:44.693Z,99469.53
2018-12-07T14:37:13.227Z,99470.77
2018-12-07T14:39:41.720Z,99474.25
2018-12-07T14:42:10.259Z,99467.30
2018-12-07T14:44:38.940Z,99466.00
2018-12-07T14:47:07.450Z,99472.84
2018-12-07T14:49:36.027Z,99474.09
2018-12-07T14:52:04.877Z,99471.97
2018-12-07T14:54:33.369Z,99466.27
2018-12-07T14:57:02.141Z,98912.01
2018-12-07T14:59:30.897Z,99463.47
2018-12-07T15:01:59.799Z,99133.48
2018-12-07T15:04:28.427Z,99462.08
2018-12-07T15:06:57.142Z,99456.02
2018-12-07T15:09:25.956Z,99449.58
2018-12-07T15:11:54.829Z,99453.11
2018-12-07T15:14:23.403Z,99448.75
2018-12-07T15:16:52.476Z,99451.81
2018-12-07T15:19:21.123Z,99451.14
2018-12-07T15:21:49.747Z,99444.36
2018-12-07T15:24:18.227Z,99449.38
2018-12-07T15:26:47.754Z,99450.52
2018-12-07T15:29:17.003Z,99444.72
2018-12-07T15:31:45.519Z,99449.02
2018-12-07T15:34:14.247Z,99452.70
2018-12-07T15:36:42.790Z,99461.30
2018-12-07T15:39:11.833Z,99456.42
2018-12-07T15:41:41.157Z,99453.32
2018-12-07T15:44:10.249Z,99463.47
2018-12-07T15:46:39.563Z,99456.88
2018-12-07T15:49:09.025Z,99456.36
2018-12-07T15:51:37.575Z,99453.72
2018-12-07T15:54:06.089Z,99449.11
2018-12-07T15:56:34.668Z,99446.63
2018-12-07T15:59:03.329Z,99446.27
2018-12-07T16:01:32.151Z,99444.45
2018-12-07T16:04:01.053Z,99440.62
2018-12-07T16:06:29.709Z,99434.20
2018-12-07T16:08:58.840Z,99427.36
2018-12-07T16:11:27.729Z,99430.84
2018-12-07T16:13:56.477Z,99420.42
2018-12-07T16:16:25.186Z,99423.48
2018-12-07T16:18:53.791Z,99422.59
2018-12-07T16:21:22.318Z,99420.47
2018-12-07T16:23:51.110Z,99423.69
2018-12-07T16:26:20.002Z,99412.03
2018-12-07T16:28:48.818Z,99415.55
2018-12-07T16:31:17.432Z,99406.84
2018-12-07T16:33:46.122Z,99408.61
2018-12-07T16:36:14.988Z,99403.89
2018-12-07T16:38:43.573Z,99397.37
2018-12-07T16:41:12.902Z,99389.13
2018-12-07T16:43:41.672Z,99370.27
2018-12-07T16:46:10.635Z,99366.48
2018-12-07T16:48:39.210Z,99357.10
2018-12-07T16:51:08.528Z,99355.49
2018-12-07T16:53:37.180Z,99358.18
2018-12-07T16:56:05.910Z,99359.42
2018-12-07T16:58:35.021Z,99357.05
2018-12-07T17:01:03.978Z,99357.37
2018-12-07T17:03:32.834Z,99353.48
2018-12-07T17:06:01.585Z,99350.52
2018-12-07T17:08:30.966Z,99346.27
2018-12-07T17:10:59.856Z,99348.91
2018-12-07T17:13:29.150Z,99350.84
2018-12-07T17:15:58.020Z,99341.16
2018-12-07T17:18:26.514Z,99344.58
2018-12-07T17:20:55.248Z,99333.07
2018-12-07T17:23:25.871Z,99328.92
2018-12-07T17:25:54.679Z,99333.54
2018-12-07T17:28:23.214Z,99327.52
2018-12-07T17:30:51.677Z,99326.80
2018-12-07T17:33:20.111Z,99318.29
2018-12-07T17:35:49.033Z,99312.00
2018-12-07T17:38:17.651Z,99304.80
2018-12-07T17:40:46.470Z,99296.60
2018-12-07T17:43:14.975Z,99309.66
2018-12-07T17:45:43.741Z,99307.84
2018-12-07T17:48:12.605Z,99303.53
2018-12-07T17:50:41.070Z,99303.28
2018-12-07T17:53:09.772Z,99301.47
2018-12-07T17:55:38.540Z,99297.64
2018-12-07T17:58:07.250Z,99287.59
2018-12-07T18:00:36.099Z,99273.03
2018-12-07T18:03:04.896Z,99268.46
2018-12-07T18:05:33.503Z,99257.78
2018-12-07T18:08:02.449Z,99263.98
2018-12-07T18:10:31.247Z,99245.89
2018-12-07T18:12:59.912Z,99227.80
2018-12-07T18:15:29.111Z,99199.72
2018-12-07T18:17:57.541Z,99224.37
2018-12-07T18:20:26.129Z,99236.95
2018-12-07T18:22:55.375Z,99238.67
2018-12-07T18:25:23.928Z,99248.06
2018-12-07T18:27:52.395Z,99230.76
2018-12-07T18:30:20.972Z,99213.92
2018-12-07T18:32:49.621Z,99236.45
2018-12-07T18:35:19.139Z,99236.49
2018-12-07T18:37:47.700Z,99242.14
2018-12-07T18:40:16.329Z,99277.95
2018-12-07T18:42:44.745Z,99254.17
2018-12-07T18:45:13.410Z,99249.45
2018-12-07T18:47:42.088Z,99258.02
2018-12-07T18:50:10.865Z,99242.14
2018-12-07T18:52:40.887Z,99248.05
2018-12-07T18:55:10.660Z,99243.02
2018-12-07T18:57:39.904Z,99249.22
2018-12-07T19:00:09.469Z,99250.70
2018-12-07T19:02:38.151Z,99249.45
2018-12-07T19:05:06.807Z,99244.31
2018-12-07T19:07:35.462Z,99248.62
2018-12-07T19:10:04.952Z,99245.61
2018-12-07T19:12:33.393Z,99244.73
2018-12-07T19:15:01.906Z,99246.35
2018-12-07T19:17:31.317Z,99244.08
2018-12-07T19:19:59.925Z,99248.80
2018-12-07T19:22:28.594Z,99235.84
2018-12-07T19:24:57.390Z,99231.03
2018-12-07T19:27:25.929Z,99238.76
2018-12-07T19:29:54.329Z,99231.22
2018-12-07T19:32:23.241Z,99224.46
2018-12-07T19:34:51.859Z,99219.28
2018-12-07T19:37:20.931Z,99218.41
2018-12-07T19:39:49.674Z,99196.70
2018-12-07T19:42:18.675Z,99224.83
2018-12-07T19:44:48.550Z,99222.70
2018-12-07T19:47:17.129Z,99228.34
2018-12-07T19:49:45.941Z,99224.09
2018-12-07T19:52:14.831Z,99223.58
2018-12-07T19:54:44.237Z,99213.12
2018-12-07T19:57:12.867Z,99213.59
2018-12-07T19:59:41.616Z,99192.41
2018-12-07T20:02:10.157Z,99191.02
2018-12-07T20:04:38.718Z,99189.72
2018-12-07T20:07:07.380Z,99188.33
2018-12-07T20:09:36.125Z,99186.16
2018-12-07T20:12:04.921Z,99181.91
2018-12-07T20:14:33.589Z,99178.95
2018-12-07T20:17:02.493Z,99167.34
2018-12-07T20:19:31.486Z,99161.33
2018-12-07T20:22:01.157Z,99150.51
2018-12-07T20:24:29.588Z,99143.52
2018-12-07T20:26:58.035Z,99142.23
2018-12-07T20:29:26.439Z,99128.03
2018-12-07T20:31:55.035Z,99128.45
2018-12-07T20:34:23.599Z,99129.00
2018-12-07T20:36:52.277Z,99136.27
2018-12-07T20:39:21.155Z,99134.92
2018-12-07T20:41:49.770Z,99128.36
2018-12-07T20:44:18.230Z,99115.83
2018-12-07T20:46:46.813Z,99108.47
2018-12-07T20:49:16.052Z,99103.30
2018-12-07T20:51:44.831Z,99114.58
2018-12-07T20:54:14.399Z,99121.56
2018-12-07T20:56:42.981Z,99128.91
2018-12-07T20:59:11.594Z,99112.95
2018-12-07T21:01:40.262Z,99117.81
2018-12-07T21:04:25.045Z,99115.27
2018-12-07T21:07:32.259Z,99107.50
2018-12-07T21:12:23.376Z,99096.30
2018-12-07T21:14:54.110Z,99084.14
2018-12-07T21:17:30.290Z,99083.31
2018-12-07T21:20:11.965Z,99088.95
2018-12-07T21:22:40.596Z,99088.44
2018-12-07T21:25:09.209Z,99095.30
2018-12-07T21:27:37.894Z,99085.81
2018-12-07T21:30:23.201Z,99081.14
2018-12-07T21:32:52.317Z,98948.70
2018-12-07T21:35:20.812Z,99080.89
2018-12-07T21:37:49.644Z,99075.30
2018-12-07T21:40:22.590Z,99064.98
2018-12-07T21:42:51.113Z,99061.09
2018-12-07T21:45:19.695Z,99061.97
2018-12-07T21:48:26.974Z,99050.31
2018-12-07T21:51:17.858Z,99046.39
2018-12-07T21:53:46.540Z,99043.88
2018-12-07T21:56:14.990Z,99048.69
2018-12-07T21:58:43.408Z,99042.67
2018-12-07T22:01:11.928Z,99028.84
2018-12-07T22:03:40.765Z,99020.66
2018-12-07T22:06:09.686Z,99019.36
2018-12-07T22:08:38.211Z,99018.06
2018-12-07T22:11:07.350Z,99005.48
2018-12-07T22:13:36.251Z,99000.69
2018-12-07T22:16:04.932Z,99006.66
2018-12-07T22:18:33.357Z,99006.11
2018-12-07T22:21:02.111Z,99005.61
2018-12-07T22:23:30.988Z,99006.91
2018-12-07T22:25:59.574Z,99012.09
2018-12-07T22:28:28.554Z,99005.16
2018-12-07T22:30:57.354Z,99001.23
2018-12-07T22:33:25.989Z,99000.35
2018-12-07T22:35:54.692Z,99001.69
2018-12-07T22:38:23.410Z,98998.22
2018-12-07T22:40:52.176Z,99004.31
2018-12-07T22:43:20.984Z,98998.72
2018-12-07T22:45:49.643Z,98992.28
2018-12-07T22:48:18.283Z,98978.88
2018-12-07T22:50:46.888Z,98975.88
2018-12-07T22:53:15.322Z,98966.39
2018-12-07T22:55:43.989Z,98964.67
2018-12-07T22:58:12.369Z,98957.78
2018-12-07T23:00:44.426Z,98951.31
2018-12-07T23:03:13.138Z,98952.73
2018-12-07T23:05:41.555Z,98947.55
2018-12-07T23:08:10.112Z,98940.23
2018-12-07T23:10:39.021Z,98937.64
2018-12-07T23:13:07.748Z,98936.39
2018-12-07T23:15:36.434Z,98926.48
2018-12-07T23:18:04.837Z,98930.41
2018-12-07T23:20:33.289Z,98925.31
2018-12-07T23:23:03.007Z,98930.61
2018-12-07T23:25:31.397Z,98925.50
2018-12-07T23:28:00.329Z,98919.91
2018-12-07T23:30:28.849Z,98919.98
2018-12-07T23:32:57.239Z,98911.37
2018-12-07T23:35:25.665Z,98913.62
2018-12-07T23:37:54.087Z,98900.66
2018-12-07T23:40:22.485Z,98901.08
2018-12-07T23:42:53.618Z,98897.66
2018-12-07T23:45:22.113Z,98894.22
2018-12-07T23:47:50.775Z,98887.33
2018-12-07T23:50:19.186Z,98882.59
2018-12-07T23:52:47.701Z,98876.16
2018-12-07T23:55:16.251Z,98866.66
2018-12-07T23:57:44.645Z,98859.34
